Terminal Aerodrome Forecast
Issued by NWS

Home | Current Version | Previous Version | Text Only | Print | Product List | Glossary On
Versions: 1 2 3 4 5 6 7 8 9 10 11 12 13 14 15 16 17 18 19 20 21 22 23 24
000
FTUS45 KSLC 301734
TAFPVU
TAF
KPVU 301734Z 3018/0118 VRB03KT P6SM FEW110 BKN250
     FM302000 29005KT P6SM SCT110 BKN250
     FM010400 15005KT P6SM BKN250=

USA.gov is the U.S. government's official web portal to all federal, state and local government web resources and services.